This is the latest recevied weather packets stored in our database for station/object OE5HCE. If no packets are shown the sender has not sent any weather packets the latest 10 day(s).
| Time | Temp. | Humidity | Pressure | Rain* | Wind** | Luminosity | Snow |
|---|---|---|---|---|---|---|---|
| 1777458640 | 14.44° C | 38% | 1023.5 hPa | 0 mm | - | 817 W/m² | - |
| 1777457735 | 13.89° C | 37% | 1023.6 hPa | 0 mm | - | 330 W/m² | - |
| 1777456845 | 14.44° C | 37% | 1023.6 hPa | 0 mm | - | 838 W/m² | - |
| 1777455991 | 13.89° C | 37% | 1023.4 hPa | 0 mm | - | 789 W/m² | - |
| 1777455031 | 13.89° C | 35% | 1023.5 hPa | 0 mm | - | 784 W/m² | - |
| 1777454125 | 13.33° C | 38% | 1023.4 hPa | 0 mm | - | 756 W/m² | - |
| 1777453241 | 12.78° C | 40% | 1023.5 hPa | 0 mm | - | 510 W/m² | - |
| 1777452320 | 12.22° C | 40% | 1023.6 hPa | 0 mm | - | 360 W/m² | - |
| 1777451429 | 11.11° C | 41% | 1023.5 hPa | 0 mm | - | 109 W/m² | - |
| 1777450516 | 11.11° C | 41% | 1023.6 hPa | 0 mm | - | 121 W/m² | - |
| 1777449616 | 11.11° C | 43% | 1023.6 hPa | 0 mm | - | 160 W/m² | - |
| 1777448715 | 10.56° C | 44% | 1023.7 hPa | 0 mm | - | 120 W/m² | - |
| 1777447814 | 10° C | 44% | 1023.4 hPa | 0 mm | - | 125 W/m² | - |
| 1777446911 | 9.44° C | 45% | 1023.5 hPa | 0 mm | - | 308 W/m² | - |
| 1777446010 | 8.89° C | 47% | 1023.5 hPa | 0 mm | - | 311 W/m² | - |
| 1777445108 | 8.89° C | 47% | 1023.5 hPa | 0 mm | - | 308 W/m² | - |
| 1777444217 | 8.33° C | 48% | 1023.5 hPa | 0 mm | - | 220 W/m² | - |
| 1777443305 | 8.89° C | 47% | 1023.4 hPa | 0 mm | - | 165 W/m² | - |
| 1777442405 | 8.33° C | 48% | 1023.3 hPa | 0 mm | - | 223 W/m² | - |
| 1777441561 | 8.33° C | 48% | 1023.3 hPa | 0 mm | - | 183 W/m² | - |
| 1777440657 | 7.78° C | 48% | 1023 hPa | 0 mm | - | 111 W/m² | - |
| 1777439753 | 7.78° C | 47% | 1022.9 hPa | 0 mm | - | 88 W/m² | - |
| 1777438851 | 7.78° C | 48% | 1022.6 hPa | 0 mm | - | 69 W/m² | - |
| 1777437946 | 7.78° C | 47% | 1022.4 hPa | 0 mm | - | 46 W/m² | - |
| 1777437042 | 7.78° C | 46% | 1022.2 hPa | 0 mm | - | 26 W/m² | - |
* Rain latest hour (hover to see other rain measurements)
** Current wind speed in m/s (hover to see current wind gust speed)